createdAt,value
2019-01-27T00:01:14.339Z,6.30
2019-01-27T00:03:47.073Z,6.30
2019-01-27T00:06:18.258Z,6.30
2019-01-27T00:08:49.433Z,6.30
2019-01-27T00:11:20.441Z,6.20
2019-01-27T00:13:51.611Z,6.10
2019-01-27T00:16:22.732Z,6.20
2019-01-27T00:18:54.078Z,6.20
2019-01-27T00:21:25.184Z,6.20
2019-01-27T00:23:56.422Z,6.10
2019-01-27T00:26:27.694Z,6.10
2019-01-27T00:28:58.767Z,6.10
2019-01-27T00:31:30.838Z,6.00
2019-01-27T00:34:01.879Z,6.00
2019-01-27T00:36:32.871Z,6.00
2019-01-27T00:39:05.885Z,6.00
2019-01-27T00:41:38.186Z,6.00
2019-01-27T00:44:09.286Z,6.00
2019-01-27T00:46:40.219Z,6.00
2019-01-27T00:49:11.427Z,6.00
2019-01-27T00:51:42.373Z,6.00
2019-01-27T00:54:13.291Z,6.00
2019-01-27T00:56:44.192Z,6.00
2019-01-27T00:59:15.467Z,6.00
2019-01-27T01:01:46.403Z,6.00
2019-01-27T01:04:17.345Z,6.00
2019-01-27T01:06:48.432Z,6.00
2019-01-27T01:09:19.524Z,6.10
2019-01-27T01:11:50.499Z,6.10
2019-01-27T01:14:21.452Z,6.10
2019-01-27T01:16:52.463Z,6.20
2019-01-27T01:19:23.582Z,6.20
2019-01-27T01:21:54.491Z,6.10
2019-01-27T01:24:25.357Z,6.10
2019-01-27T01:26:56.477Z,6.10
2019-01-27T01:29:27.368Z,6.10
2019-01-27T01:31:58.324Z,6.10
2019-01-27T01:34:29.210Z,6.00
2019-01-27T01:37:00.232Z,6.10
2019-01-27T01:39:31.249Z,6.10
2019-01-27T01:42:02.206Z,6.20
2019-01-27T01:44:33.073Z,6.10
2019-01-27T01:47:04.198Z,6.20
2019-01-27T01:49:35.044Z,6.20
2019-01-27T01:52:06.263Z,6.20
2019-01-27T01:54:37.371Z,6.20
2019-01-27T01:57:09.670Z,6.20
2019-01-27T01:59:40.804Z,6.20
2019-01-27T02:02:11.881Z,6.20
2019-01-27T02:04:43.944Z,6.30
2019-01-27T02:07:15.050Z,6.30
2019-01-27T02:09:46.116Z,6.20
2019-01-27T02:12:17.291Z,6.30
2019-01-27T02:14:48.359Z,6.30
2019-01-27T02:17:19.585Z,6.30
2019-01-27T02:19:50.695Z,6.40
2019-01-27T02:22:21.603Z,6.30
2019-01-27T02:24:52.483Z,6.20
2019-01-27T02:27:23.559Z,6.20
2019-01-27T02:30:13.862Z,6.20
2019-01-27T02:32:45.043Z,6.30
2019-01-27T02:35:16.062Z,6.30
2019-01-27T02:37:48.652Z,6.30
2019-01-27T02:40:22.535Z,6.30
2019-01-27T02:42:53.540Z,6.30
2019-01-27T02:45:28.812Z,6.30
2019-01-27T02:48:06.764Z,6.40
2019-01-27T02:50:37.699Z,6.30
2019-01-27T02:53:08.849Z,6.30
2019-01-27T02:55:58.932Z,6.20
2019-01-27T02:58:30.002Z,6.20
2019-01-27T03:01:00.928Z,6.20
2019-01-27T03:03:33.067Z,6.10
2019-01-27T03:06:19.297Z,6.20
2019-01-27T03:09:09.296Z,6.30
2019-01-27T03:11:50.686Z,6.20
2019-01-27T03:14:22.533Z,6.20
2019-01-27T03:16:54.581Z,6.20
2019-01-27T03:19:25.780Z,6.20
2019-01-27T03:21:56.780Z,6.20
2019-01-27T03:24:27.889Z,6.20
2019-01-27T03:26:58.864Z,6.20
2019-01-27T03:29:30.046Z,6.30
2019-01-27T03:32:01.113Z,6.30
2019-01-27T03:34:32.093Z,6.20
2019-01-27T03:37:03.294Z,6.30
2019-01-27T03:39:37.253Z,6.20
2019-01-27T03:42:08.314Z,6.20
2019-01-27T03:44:39.312Z,6.10
2019-01-27T03:47:10.426Z,6.20
2019-01-27T03:49:41.450Z,6.20
2019-01-27T03:52:12.485Z,6.20
2019-01-27T03:54:43.439Z,6.20
2019-01-27T03:57:14.366Z,6.30
2019-01-27T03:59:45.470Z,6.30
2019-01-27T04:02:16.396Z,6.30
2019-01-27T04:04:47.318Z,6.20
2019-01-27T04:07:18.123Z,6.10
2019-01-27T04:09:49.028Z,6.10
2019-01-27T04:12:20.032Z,6.10
2019-01-27T04:14:51.973Z,6.10
2019-01-27T04:17:22.894Z,6.00
2019-01-27T04:19:53.852Z,6.00
2019-01-27T04:22:24.736Z,6.00
2019-01-27T04:24:55.630Z,6.00
2019-01-27T04:27:26.497Z,5.90
2019-01-27T04:29:57.514Z,5.90
2019-01-27T04:32:28.410Z,5.90
2019-01-27T04:34:59.586Z,5.80
2019-01-27T04:37:30.424Z,5.80
2019-01-27T04:40:01.313Z,5.80
2019-01-27T04:42:32.145Z,5.80
2019-01-27T04:45:03.173Z,5.80
2019-01-27T04:47:35.263Z,5.80
2019-01-27T04:50:09.805Z,5.80
2019-01-27T04:52:41.012Z,5.70
2019-01-27T04:55:15.473Z,5.70
2019-01-27T04:57:46.494Z,5.60
2019-01-27T05:00:20.459Z,5.80
2019-01-27T05:03:04.946Z,5.80
2019-01-27T05:05:37.628Z,5.70
2019-01-27T05:08:09.526Z,5.60
2019-01-27T05:10:40.694Z,5.60
2019-01-27T05:13:11.775Z,5.60
2019-01-27T05:15:42.774Z,5.60
2019-01-27T05:18:13.649Z,5.60
2019-01-27T05:20:44.688Z,5.60
2019-01-27T05:23:15.921Z,5.70
2019-01-27T05:25:46.931Z,5.60
2019-01-27T05:28:17.843Z,5.60
2019-01-27T05:30:48.895Z,5.60
2019-01-27T05:33:19.901Z,5.60
2019-01-27T05:35:51.044Z,5.60
2019-01-27T05:38:22.015Z,5.60
2019-01-27T05:40:53.136Z,5.60
2019-01-27T05:43:24.159Z,5.50
2019-01-27T05:45:55.179Z,5.50
2019-01-27T05:48:26.062Z,5.50
2019-01-27T05:50:57.031Z,5.50
2019-01-27T05:53:27.974Z,5.50
2019-01-27T05:55:58.993Z,5.50
2019-01-27T05:58:29.903Z,5.60
2019-01-27T06:01:00.865Z,5.50
2019-01-27T06:03:32.040Z,5.50
2019-01-27T06:06:03.014Z,5.50
2019-01-27T06:08:33.854Z,5.60
2019-01-27T06:11:04.811Z,5.50
2019-01-27T06:13:35.717Z,5.50
2019-01-27T06:16:06.769Z,5.50
2019-01-27T06:18:37.591Z,5.60
2019-01-27T06:21:08.680Z,5.50
2019-01-27T06:23:39.637Z,5.50
2019-01-27T06:26:10.735Z,5.50
2019-01-27T06:28:41.584Z,5.60
2019-01-27T06:31:12.907Z,5.40
2019-01-27T06:33:56.115Z,5.50
2019-01-27T06:36:27.144Z,5.60
2019-01-27T06:38:58.117Z,5.60
2019-01-27T06:41:29.153Z,5.50
2019-01-27T06:44:00.475Z,5.50
2019-01-27T06:46:31.515Z,5.50
2019-01-27T06:49:02.455Z,5.50
2019-01-27T06:51:33.937Z,5.60
2019-01-27T06:54:05.811Z,5.60
2019-01-27T06:56:36.754Z,5.60
2019-01-27T06:59:21.013Z,5.70
2019-01-27T07:01:57.071Z,5.70
2019-01-27T07:04:35.335Z,5.70
2019-01-27T07:07:37.957Z,5.70
2019-01-27T07:10:28.699Z,5.70
2019-01-27T07:13:16.613Z,5.80
2019-01-27T07:16:09.359Z,5.80
2019-01-27T07:19:09.474Z,5.80
2019-01-27T07:21:58.091Z,5.70
2019-01-27T07:24:54.005Z,5.70
2019-01-27T07:27:42.534Z,5.70
2019-01-27T07:30:31.902Z,5.80
2019-01-27T07:33:30.632Z,5.70
2019-01-27T07:36:20.474Z,5.70
2019-01-27T07:39:13.203Z,5.80
2019-01-27T07:42:03.443Z,5.80
2019-01-27T07:44:40.170Z,5.80
2019-01-27T07:47:26.084Z,5.80
2019-01-27T07:50:22.202Z,5.70
2019-01-27T07:53:02.680Z,5.80
2019-01-27T07:55:46.420Z,5.80
2019-01-27T07:58:39.307Z,5.70
2019-01-27T08:01:26.985Z,5.70
2019-01-27T08:04:29.115Z,5.70
2019-01-27T08:07:13.534Z,5.70
2019-01-27T08:09:52.036Z,5.80
2019-01-27T08:12:36.700Z,5.80
2019-01-27T08:15:19.098Z,5.80
2019-01-27T08:18:09.908Z,5.80
2019-01-27T08:20:57.629Z,5.80
2019-01-27T08:23:53.348Z,5.90
2019-01-27T08:26:31.568Z,5.90
2019-01-27T08:29:10.684Z,5.90
2019-01-27T08:31:47.429Z,5.90
2019-01-27T08:34:37.558Z,5.90
2019-01-27T08:37:32.354Z,6.00
2019-01-27T08:40:19.415Z,5.90
2019-01-27T08:43:15.699Z,5.90
2019-01-27T08:46:00.076Z,5.90
2019-01-27T08:48:31.074Z,5.80
2019-01-27T08:51:01.918Z,5.90
2019-01-27T08:53:32.846Z,5.90
2019-01-27T08:56:03.912Z,5.90
2019-01-27T08:58:34.884Z,5.90
2019-01-27T09:01:44.104Z,5.90
2019-01-27T09:04:25.483Z,5.80
2019-01-27T09:07:18.536Z,5.90
2019-01-27T09:10:07.516Z,5.90
2019-01-27T09:13:03.398Z,6.00
2019-01-27T09:15:54.809Z,6.00
2019-01-27T09:18:35.052Z,6.10
2019-01-27T09:21:43.561Z,6.00
2019-01-27T09:24:31.995Z,6.10
2019-01-27T09:27:31.142Z,6.00
2019-01-27T09:30:11.179Z,6.00
2019-01-27T09:33:06.400Z,6.00
2019-01-27T09:35:52.728Z,6.00
2019-01-27T09:38:48.689Z,6.00
2019-01-27T09:41:51.157Z,5.90
2019-01-27T09:44:38.146Z,6.00
2019-01-27T09:47:31.222Z,6.10
2019-01-27T09:50:08.100Z,6.10
2019-01-27T09:53:01.241Z,6.10
2019-01-27T09:55:44.110Z,6.20
2019-01-27T09:58:24.564Z,6.30
2019-01-27T10:01:26.383Z,6.30
2019-01-27T10:04:11.925Z,6.40
2019-01-27T10:06:54.458Z,6.40
2019-01-27T10:09:52.810Z,6.40
2019-01-27T10:12:34.191Z,6.40
2019-01-27T10:15:25.553Z,6.50
2019-01-27T10:18:10.587Z,6.60
2019-01-27T10:20:57.126Z,6.60
2019-01-27T10:23:47.319Z,6.70
2019-01-27T10:26:36.012Z,6.70
2019-01-27T10:29:20.412Z,6.70
2019-01-27T10:32:10.089Z,6.70
2019-01-27T10:34:51.949Z,6.70
2019-01-27T10:37:29.636Z,6.70
2019-01-27T10:40:23.856Z,6.70
2019-01-27T10:43:05.886Z,6.60
2019-01-27T10:45:56.205Z,6.60
2019-01-27T10:48:58.254Z,6.70
2019-01-27T10:51:46.721Z,6.70
2019-01-27T10:54:40.282Z,6.70
2019-01-27T10:57:44.998Z,6.70
2019-01-27T11:00:30.003Z,6.60
2019-01-27T11:03:10.909Z,6.60
2019-01-27T11:06:01.010Z,6.70
2019-01-27T11:08:45.254Z,6.60
2019-01-27T11:11:38.391Z,6.60
2019-01-27T11:14:29.922Z,6.60
2019-01-27T11:17:15.148Z,6.60
2019-01-27T11:19:55.231Z,6.70
2019-01-27T11:22:45.326Z,6.70
2019-01-27T11:25:36.669Z,6.70
2019-01-27T11:28:32.492Z,6.70
2019-01-27T11:31:19.292Z,6.70
2019-01-27T11:34:21.564Z,6.60
2019-01-27T11:37:00.672Z,6.70
2019-01-27T11:39:47.991Z,6.60
2019-01-27T11:42:46.371Z,6.70
2019-01-27T11:45:23.738Z,6.70
2019-01-27T11:48:20.859Z,6.70
2019-01-27T11:50:56.032Z,6.70
2019-01-27T11:53:27.158Z,6.70
2019-01-27T11:55:59.415Z,6.80
2019-01-27T11:58:30.567Z,6.90
2019-01-27T12:01:04.498Z,6.90
2019-01-27T12:03:35.594Z,7.00
2019-01-27T12:06:06.830Z,7.00
2019-01-27T12:08:55.552Z,6.90
2019-01-27T12:11:28.179Z,7.00
2019-01-27T12:13:59.543Z,6.90
2019-01-27T12:16:30.762Z,6.90
2019-01-27T12:19:01.909Z,6.90
2019-01-27T12:21:33.008Z,7.10
2019-01-27T12:24:04.144Z,7.00
2019-01-27T12:26:35.239Z,7.10
2019-01-27T12:29:06.416Z,7.10
2019-01-27T12:31:37.533Z,7.10
2019-01-27T12:34:08.747Z,7.20
2019-01-27T12:36:39.816Z,7.20
2019-01-27T12:39:11.938Z,7.20
2019-01-27T12:41:44.746Z,7.20
2019-01-27T12:44:15.908Z,7.00
2019-01-27T12:46:48.014Z,7.00
2019-01-27T12:49:26.861Z,7.10
2019-01-27T12:51:57.961Z,7.10
2019-01-27T12:54:30.474Z,7.10
2019-01-27T12:57:01.765Z,7.10
2019-01-27T12:59:33.056Z,7.10
2019-01-27T13:02:04.708Z,7.10
2019-01-27T13:04:36.004Z,7.10
2019-01-27T13:07:07.140Z,7.10
2019-01-27T13:09:38.295Z,7.20
2019-01-27T13:12:09.426Z,7.20
2019-01-27T13:14:43.464Z,7.20
2019-01-27T13:17:14.552Z,7.30
2019-01-27T13:19:45.756Z,7.30
2019-01-27T13:22:16.964Z,7.20
2019-01-27T13:24:48.170Z,7.20
2019-01-27T13:27:20.130Z,7.20
2019-01-27T13:29:51.618Z,7.20
2019-01-27T13:32:22.674Z,7.20
2019-01-27T13:34:56.249Z,7.20
2019-01-27T13:37:26.862Z,7.20
2019-01-27T13:40:00.003Z,7.10
2019-01-27T13:42:30.949Z,7.10
2019-01-27T13:45:02.938Z,7.20
2019-01-27T13:47:35.708Z,7.20
2019-01-27T13:50:10.130Z,7.10
2019-01-27T13:52:41.474Z,7.10
2019-01-27T13:55:20.154Z,7.00
2019-01-27T13:57:51.180Z,7.10
2019-01-27T14:00:32.167Z,7.10
2019-01-27T14:03:03.237Z,7.00
2019-01-27T14:05:34.533Z,7.00
2019-01-27T14:08:05.753Z,6.90
2019-01-27T14:10:36.834Z,7.00
2019-01-27T14:13:07.963Z,7.10
2019-01-27T14:15:39.702Z,7.20
2019-01-27T14:18:12.250Z,7.30
2019-01-27T14:20:43.556Z,7.20
2019-01-27T14:23:16.852Z,7.20
2019-01-27T14:25:48.170Z,7.20
2019-01-27T14:28:19.320Z,7.10
2019-01-27T14:30:50.509Z,7.10
2019-01-27T14:33:21.587Z,7.20
2019-01-27T14:35:52.576Z,7.20
2019-01-27T14:38:23.544Z,7.20
2019-01-27T14:40:54.776Z,7.20
2019-01-27T14:43:25.732Z,7.10
2019-01-27T14:45:56.814Z,7.10
2019-01-27T14:48:27.770Z,7.20
2019-01-27T14:50:58.996Z,7.10
2019-01-27T14:53:29.917Z,7.10
2019-01-27T14:56:00.975Z,7.10
2019-01-27T14:58:33.523Z,7.10
2019-01-27T15:01:04.719Z,7.10
2019-01-27T15:03:35.688Z,7.10
2019-01-27T15:06:26.006Z,7.10
2019-01-27T15:09:03.970Z,7.10
2019-01-27T15:11:37.002Z,7.10
2019-01-27T15:14:08.343Z,7.00
2019-01-27T15:16:39.409Z,7.10
2019-01-27T15:19:10.375Z,7.10
2019-01-27T15:21:42.051Z,7.10
2019-01-27T15:24:13.007Z,7.10
2019-01-27T15:26:44.149Z,7.10
2019-01-27T15:29:15.103Z,7.00
2019-01-27T15:31:46.958Z,7.00
2019-01-27T15:34:18.584Z,7.00
2019-01-27T15:36:49.819Z,7.00
2019-01-27T15:39:20.761Z,7.00
2019-01-27T15:41:51.805Z,7.10
2019-01-27T15:44:23.906Z,7.10
2019-01-27T15:46:55.048Z,7.10
2019-01-27T15:49:26.113Z,7.10
2019-01-27T15:51:57.227Z,7.20
2019-01-27T15:54:31.187Z,7.20
2019-01-27T15:57:02.481Z,7.20
2019-01-27T15:59:33.526Z,7.20
2019-01-27T16:02:04.873Z,7.10
2019-01-27T16:04:49.218Z,7.10
2019-01-27T16:07:20.138Z,7.10
2019-01-27T16:09:51.268Z,7.10
2019-01-27T16:12:22.366Z,7.10
2019-01-27T16:14:53.447Z,7.20
2019-01-27T16:17:24.399Z,7.10
2019-01-27T16:19:55.429Z,7.10
2019-01-27T16:22:26.333Z,7.10
2019-01-27T16:24:57.317Z,7.10
2019-01-27T16:27:28.401Z,7.00
2019-01-27T16:30:11.129Z,7.10
2019-01-27T16:32:42.721Z,7.10
2019-01-27T16:35:17.159Z,7.20
2019-01-27T16:37:48.204Z,7.20
2019-01-27T16:40:19.327Z,7.10
2019-01-27T16:42:50.326Z,7.10
2019-01-27T16:45:21.186Z,7.20
2019-01-27T16:47:52.763Z,7.10
2019-01-27T16:50:23.971Z,7.00
2019-01-27T16:52:54.987Z,7.00
2019-01-27T16:55:26.093Z,7.10
2019-01-27T16:57:57.074Z,7.20
2019-01-27T17:00:29.260Z,7.20
2019-01-27T17:03:00.427Z,7.10
2019-01-27T17:05:31.590Z,7.00
2019-01-27T17:08:02.637Z,7.00
2019-01-27T17:10:33.726Z,7.00
2019-01-27T17:13:06.643Z,6.90
2019-01-27T17:15:41.243Z,6.90
2019-01-27T17:18:15.743Z,7.00
2019-01-27T17:20:48.807Z,7.00
2019-01-27T17:23:20.712Z,6.90
2019-01-27T17:25:53.588Z,7.00
2019-01-27T17:28:24.605Z,7.00
2019-01-27T17:30:57.275Z,7.00
2019-01-27T17:33:28.313Z,7.00
2019-01-27T17:36:11.695Z,6.90
2019-01-27T17:38:42.736Z,7.00
2019-01-27T17:41:13.849Z,7.00
2019-01-27T17:43:47.262Z,7.00
2019-01-27T17:46:18.414Z,7.00
2019-01-27T17:48:49.599Z,7.00
2019-01-27T17:51:20.670Z,7.00
2019-01-27T17:54:10.864Z,7.00
2019-01-27T17:56:43.573Z,6.90
2019-01-27T17:59:45.507Z,6.90
2019-01-27T18:02:34.183Z,6.90
2019-01-27T18:05:20.785Z,7.00
2019-01-27T18:08:11.356Z,7.00
2019-01-27T18:10:56.251Z,7.00
2019-01-27T18:13:44.878Z,6.90
2019-01-27T18:16:16.021Z,6.90
2019-01-27T18:18:47.255Z,6.90
2019-01-27T18:21:18.462Z,7.00
2019-01-27T18:23:49.498Z,7.00
2019-01-27T18:26:20.786Z,7.10
2019-01-27T18:28:54.759Z,7.00
2019-01-27T18:31:25.910Z,6.90
2019-01-27T18:33:59.451Z,7.00
2019-01-27T18:36:30.692Z,7.00
2019-01-27T18:39:01.742Z,7.10
2019-01-27T18:41:34.517Z,7.10
2019-01-27T18:44:05.576Z,7.20
2019-01-27T18:46:36.934Z,7.30
2019-01-27T18:49:09.360Z,7.30
2019-01-27T18:51:41.052Z,7.10
2019-01-27T18:54:49.647Z,7.10
2019-01-27T18:57:32.092Z,7.10
2019-01-27T19:00:34.554Z,7.10
2019-01-27T19:03:21.268Z,7.10
2019-01-27T19:06:10.163Z,7.10
2019-01-27T19:09:00.918Z,7.10
2019-01-27T19:11:52.922Z,7.20
2019-01-27T19:14:54.200Z,7.20
2019-01-27T19:17:34.206Z,7.30
2019-01-27T19:20:16.053Z,7.20
2019-01-27T19:22:57.867Z,7.20
2019-01-27T19:25:46.847Z,7.20
2019-01-27T19:28:47.867Z,7.10
2019-01-27T19:31:27.366Z,7.20
2019-01-27T19:34:35.292Z,7.20
2019-01-27T19:37:22.342Z,7.40
2019-01-27T19:40:06.338Z,7.40
2019-01-27T19:42:56.571Z,7.30
2019-01-27T19:45:38.788Z,7.10
2019-01-27T19:48:29.127Z,7.10
2019-01-27T19:51:25.048Z,7.00
2019-01-27T19:54:13.626Z,7.00
2019-01-27T19:57:03.564Z,7.00
2019-01-27T19:59:57.605Z,7.00
2019-01-27T20:02:53.420Z,7.00
2019-01-27T20:05:44.671Z,7.00
2019-01-27T20:08:37.932Z,7.00
2019-01-27T20:11:24.497Z,6.90
2019-01-27T20:14:17.836Z,6.90
2019-01-27T20:17:03.004Z,6.80
2019-01-27T20:20:08.738Z,6.70
2019-01-27T20:22:57.918Z,6.70
2019-01-27T20:25:37.618Z,6.60
2019-01-27T20:28:16.568Z,6.60
2019-01-27T20:31:06.664Z,6.40
2019-01-27T20:33:55.780Z,6.40
2019-01-27T20:36:43.081Z,6.40
2019-01-27T20:39:32.357Z,6.30
2019-01-27T20:42:25.284Z,6.30
2019-01-27T20:45:14.097Z,6.30
2019-01-27T20:48:05.452Z,6.20
2019-01-27T20:50:56.029Z,6.20
2019-01-27T20:53:35.180Z,6.20
2019-01-27T20:56:31.974Z,6.30
2019-01-27T20:59:30.396Z,6.30
2019-01-27T21:02:19.548Z,6.30
2019-01-27T21:04:59.634Z,6.40
2019-01-27T21:07:52.678Z,6.40
2019-01-27T21:10:39.489Z,6.40
2019-01-27T21:13:17.667Z,6.20
2019-01-27T21:16:18.949Z,6.20
2019-01-27T21:18:59.141Z,6.10
2019-01-27T21:21:30.237Z,6.20
2019-01-27T21:24:01.416Z,6.20
2019-01-27T21:26:34.955Z,6.10
2019-01-27T21:29:06.502Z,6.10
2019-01-27T21:31:37.410Z,6.00
2019-01-27T21:34:09.308Z,6.00
2019-01-27T21:36:40.222Z,5.90
2019-01-27T21:39:12.657Z,6.00
2019-01-27T21:41:43.747Z,6.00
2019-01-27T21:44:15.424Z,6.00
2019-01-27T21:46:46.418Z,5.90
2019-01-27T21:49:17.383Z,5.90
2019-01-27T21:51:48.396Z,5.90
2019-01-27T21:54:19.536Z,6.00
2019-01-27T21:56:50.525Z,5.90
2019-01-27T21:59:21.443Z,5.90
2019-01-27T22:01:52.507Z,5.80
2019-01-27T22:04:23.561Z,5.80
2019-01-27T22:06:55.011Z,5.90
2019-01-27T22:09:27.823Z,5.80
2019-01-27T22:11:59.023Z,5.50
2019-01-27T22:14:30.269Z,5.40
2019-01-27T22:17:01.516Z,5.30
2019-01-27T22:19:32.689Z,5.30
2019-01-27T22:22:03.776Z,5.30
2019-01-27T22:24:34.951Z,5.30
2019-01-27T22:27:06.237Z,5.20
2019-01-27T22:29:37.443Z,5.10
2019-01-27T22:32:08.615Z,5.00
2019-01-27T22:34:39.744Z,5.10
2019-01-27T22:37:10.800Z,5.00
2019-01-27T22:39:41.978Z,4.90
2019-01-27T22:42:13.049Z,4.90
2019-01-27T22:44:44.153Z,4.90
2019-01-27T22:47:15.271Z,4.80
2019-01-27T22:49:46.338Z,4.90
2019-01-27T22:52:17.457Z,4.80
2019-01-27T22:54:48.594Z,4.80
2019-01-27T22:57:19.598Z,4.80
2019-01-27T22:59:50.725Z,4.80
2019-01-27T23:02:21.714Z,4.80
2019-01-27T23:04:52.892Z,4.80
2019-01-27T23:07:23.930Z,4.80
2019-01-27T23:09:54.889Z,4.80
2019-01-27T23:12:27.483Z,4.80
2019-01-27T23:14:58.456Z,4.90
2019-01-27T23:17:29.502Z,5.00
2019-01-27T23:20:00.553Z,4.80
2019-01-27T23:22:37.687Z,4.80
2019-01-27T23:25:08.811Z,4.90
2019-01-27T23:27:39.907Z,4.90
2019-01-27T23:30:11.677Z,4.90
2019-01-27T23:32:42.855Z,4.90
2019-01-27T23:35:14.120Z,5.00
2019-01-27T23:37:45.271Z,5.10
2019-01-27T23:40:16.479Z,5.10
2019-01-27T23:42:49.326Z,5.20
2019-01-27T23:45:20.377Z,5.30
2019-01-27T23:47:51.457Z,5.40
2019-01-27T23:50:22.481Z,5.40
2019-01-27T23:52:53.597Z,5.30
2019-01-27T23:55:24.726Z,5.30
2019-01-27T23:57:55.678Z,5.30
